sensor_id;sensor_type;location;lat;lon;timestamp;temperature;humidity
4635;DHT22;2330;48.158;11.816;2023-04-15T00:01:35;4.80;98.50
4635;DHT22;2330;48.158;11.816;2023-04-15T00:04:02;4.80;98.50
4635;DHT22;2330;48.158;11.816;2023-04-15T00:06:30;4.80;98.50
4635;DHT22;2330;48.158;11.816;2023-04-15T00:08:57;4.80;98.50
4635;DHT22;2330;48.158;11.816;2023-04-15T00:11:24;4.80;98.50
4635;DHT22;2330;48.158;11.816;2023-04-15T00:13:50;4.80;98.50
4635;DHT22;2330;48.158;11.816;2023-04-15T00:16:17;4.80;98.50
4635;DHT22;2330;48.158;11.816;2023-04-15T00:18:44;4.80;98.50
4635;DHT22;2330;48.158;11.816;2023-04-15T00:21:11;4.80;98.50
4635;DHT22;2330;48.158;11.816;2023-04-15T00:23:38;4.80;98.50
4635;DHT22;2330;48.158;11.816;2023-04-15T00:26:04;4.80;98.50
4635;DHT22;2330;48.158;11.816;2023-04-15T00:28:31;4.80;98.50
4635;DHT22;2330;48.158;11.816;2023-04-15T00:30:59;4.80;98.50
4635;DHT22;2330;48.158;11.816;2023-04-15T00:33:26;4.80;98.50
4635;DHT22;2330;48.158;11.816;2023-04-15T00:35:52;4.80;98.50
4635;DHT22;2330;48.158;11.816;2023-04-15T00:38:19;4.80;98.50
4635;DHT22;2330;48.158;11.816;2023-04-15T00:40:46;4.80;98.50
4635;DHT22;2330;48.158;11.816;2023-04-15T00:43:12;4.80;98.50
4635;DHT22;2330;48.158;11.816;2023-04-15T00:45:39;4.80;98.50
4635;DHT22;2330;48.158;11.816;2023-04-15T00:48:06;4.80;98.50
4635;DHT22;2330;48.158;11.816;2023-04-15T00:50:35;4.80;98.50
4635;DHT22;2330;48.158;11.816;2023-04-15T00:53:01;4.80;98.50
4635;DHT22;2330;48.158;11.816;2023-04-15T00:55:28;4.80;98.50
4635;DHT22;2330;48.158;11.816;2023-04-15T00:57:56;4.70;98.50
4635;DHT22;2330;48.158;11.816;2023-04-15T01:00:23;4.70;98.50
4635;DHT22;2330;48.158;11.816;2023-04-15T01:02:50;4.70;98.50
4635;DHT22;2330;48.158;11.816;2023-04-15T01:05:17;4.70;98.50
4635;DHT22;2330;48.158;11.816;2023-04-15T01:07:46;4.70;98.50
4635;DHT22;2330;48.158;11.816;2023-04-15T01:10:13;4.70;98.50
4635;DHT22;2330;48.158;11.816;2023-04-15T01:12:40;4.80;98.50
4635;DHT22;2330;48.158;11.816;2023-04-15T01:15:08;4.70;98.50
4635;DHT22;2330;48.158;11.816;2023-04-15T01:17:36;4.70;98.50
4635;DHT22;2330;48.158;11.816;2023-04-15T01:20:04;4.80;98.50
4635;DHT22;2330;48.158;11.816;2023-04-15T01:22:32;4.80;98.50
4635;DHT22;2330;48.158;11.816;2023-04-15T01:25:05;4.80;98.50
4635;DHT22;2330;48.158;11.816;2023-04-15T01:27:33;4.70;98.50
4635;DHT22;2330;48.158;11.816;2023-04-15T01:30:01;4.70;98.50
4635;DHT22;2330;48.158;11.816;2023-04-15T01:32:30;4.70;98.50
4635;DHT22;2330;48.158;11.816;2023-04-15T01:34:57;4.70;98.50
4635;DHT22;2330;48.158;11.816;2023-04-15T01:37:24;4.60;98.50
4635;DHT22;2330;48.158;11.816;2023-04-15T01:39:51;4.60;98.50
4635;DHT22;2330;48.158;11.816;2023-04-15T01:42:19;4.60;98.50
4635;DHT22;2330;48.158;11.816;2023-04-15T01:44:46;4.60;98.50
4635;DHT22;2330;48.158;11.816;2023-04-15T01:47:13;4.60;98.50
4635;DHT22;2330;48.158;11.816;2023-04-15T01:49:40;4.70;98.50
4635;DHT22;2330;48.158;11.816;2023-04-15T01:52:07;4.70;98.50
4635;DHT22;2330;48.158;11.816;2023-04-15T01:54:34;4.70;98.50
4635;DHT22;2330;48.158;11.816;2023-04-15T01:57:01;4.80;98.50
4635;DHT22;2330;48.158;11.816;2023-04-15T01:59:29;4.80;98.50
4635;DHT22;2330;48.158;11.816;2023-04-15T02:01:56;4.80;98.50
4635;DHT22;2330;48.158;11.816;2023-04-15T02:04:23;4.80;98.50
4635;DHT22;2330;48.158;11.816;2023-04-15T02:06:50;4.80;98.50
4635;DHT22;2330;48.158;11.816;2023-04-15T02:09:17;4.80;98.50
4635;DHT22;2330;48.158;11.816;2023-04-15T02:11:45;4.80;98.50
4635;DHT22;2330;48.158;11.816;2023-04-15T02:14:12;4.80;98.50
4635;DHT22;2330;48.158;11.816;2023-04-15T02:16:38;4.80;98.50
4635;DHT22;2330;48.158;11.816;2023-04-15T02:19:06;4.80;98.50
4635;DHT22;2330;48.158;11.816;2023-04-15T02:21:33;4.80;98.50
4635;DHT22;2330;48.158;11.816;2023-04-15T02:24:00;4.80;98.50
4635;DHT22;2330;48.158;11.816;2023-04-15T02:26:28;4.80;98.50
4635;DHT22;2330;48.158;11.816;2023-04-15T02:28:57;4.80;98.50
4635;DHT22;2330;48.158;11.816;2023-04-15T02:31:25;4.80;98.50
4635;DHT22;2330;48.158;11.816;2023-04-15T02:33:51;4.80;98.50
4635;DHT22;2330;48.158;11.816;2023-04-15T02:36:18;4.80;98.50
4635;DHT22;2330;48.158;11.816;2023-04-15T02:38:46;4.80;98.50
4635;DHT22;2330;48.158;11.816;2023-04-15T02:41:13;4.90;98.50
4635;DHT22;2330;48.158;11.816;2023-04-15T02:43:40;4.90;98.50
4635;DHT22;2330;48.158;11.816;2023-04-15T02:46:06;4.90;98.50
4635;DHT22;2330;48.158;11.816;2023-04-15T02:48:33;4.90;98.50
4635;DHT22;2330;48.158;11.816;2023-04-15T02:51:17;4.90;98.50
4635;DHT22;2330;48.158;11.816;2023-04-15T02:53:47;4.90;98.50
4635;DHT22;2330;48.158;11.816;2023-04-15T02:56:14;4.90;98.50
4635;DHT22;2330;48.158;11.816;2023-04-15T02:58:43;4.90;98.50
4635;DHT22;2330;48.158;11.816;2023-04-15T03:01:11;4.90;98.50
4635;DHT22;2330;48.158;11.816;2023-04-15T03:03:38;4.90;98.50
4635;DHT22;2330;48.158;11.816;2023-04-15T03:06:04;4.90;98.50
4635;DHT22;2330;48.158;11.816;2023-04-15T03:08:32;4.90;98.50
4635;DHT22;2330;48.158;11.816;2023-04-15T03:10:58;4.90;98.50
4635;DHT22;2330;48.158;11.816;2023-04-15T03:13:26;5.00;98.50
4635;DHT22;2330;48.158;11.816;2023-04-15T03:15:53;5.00;98.50
4635;DHT22;2330;48.158;11.816;2023-04-15T03:18:20;5.00;98.50
4635;DHT22;2330;48.158;11.816;2023-04-15T03:20:46;5.00;98.50
4635;DHT22;2330;48.158;11.816;2023-04-15T03:23:13;5.10;98.50
4635;DHT22;2330;48.158;11.816;2023-04-15T03:25:40;5.10;98.50
4635;DHT22;2330;48.158;11.816;2023-04-15T03:28:07;5.10;98.50
4635;DHT22;2330;48.158;11.816;2023-04-15T03:30:34;5.10;98.50
4635;DHT22;2330;48.158;11.816;2023-04-15T03:33:00;5.10;98.50
4635;DHT22;2330;48.158;11.816;2023-04-15T03:35:27;5.10;98.50
4635;DHT22;2330;48.158;11.816;2023-04-15T03:37:54;5.20;98.50
4635;DHT22;2330;48.158;11.816;2023-04-15T03:40:21;5.20;98.50
4635;DHT22;2330;48.158;11.816;2023-04-15T03:42:48;5.20;98.50
4635;DHT22;2330;48.158;11.816;2023-04-15T03:45:14;5.20;98.50
4635;DHT22;2330;48.158;11.816;2023-04-15T03:47:41;5.20;98.50
4635;DHT22;2330;48.158;11.816;2023-04-15T03:50:08;5.20;98.50
4635;DHT22;2330;48.158;11.816;2023-04-15T03:52:35;5.20;98.50
4635;DHT22;2330;48.158;11.816;2023-04-15T03:55:02;5.20;98.50
4635;DHT22;2330;48.158;11.816;2023-04-15T03:57:29;5.20;98.50
4635;DHT22;2330;48.158;11.816;2023-04-15T03:59:56;5.20;98.50
4635;DHT22;2330;48.158;11.816;2023-04-15T04:02:23;5.20;98.50
4635;DHT22;2330;48.158;11.816;2023-04-15T04:04:50;5.20;98.50
4635;DHT22;2330;48.158;11.816;2023-04-15T04:07:17;5.20;98.50
4635;DHT22;2330;48.158;11.816;2023-04-15T04:09:44;5.20;98.50
4635;DHT22;2330;48.158;11.816;2023-04-15T04:12:13;5.20;98.50
4635;DHT22;2330;48.158;11.816;2023-04-15T04:14:39;5.20;98.50
4635;DHT22;2330;48.158;11.816;2023-04-15T04:17:06;5.20;98.50
4635;DHT22;2330;48.158;11.816;2023-04-15T04:19:33;5.20;98.50
4635;DHT22;2330;48.158;11.816;2023-04-15T04:22:00;5.20;98.50
4635;DHT22;2330;48.158;11.816;2023-04-15T04:24:27;5.10;98.50
4635;DHT22;2330;48.158;11.816;2023-04-15T04:26:54;5.10;98.50
4635;DHT22;2330;48.158;11.816;2023-04-15T04:29:22;5.10;98.50
4635;DHT22;2330;48.158;11.816;2023-04-15T04:31:49;5.10;98.50
4635;DHT22;2330;48.158;11.816;2023-04-15T04:34:16;5.10;98.50
4635;DHT22;2330;48.158;11.816;2023-04-15T04:36:43;5.10;98.50
4635;DHT22;2330;48.158;11.816;2023-04-15T04:39:10;5.10;98.50
4635;DHT22;2330;48.158;11.816;2023-04-15T04:41:36;5.10;98.50
4635;DHT22;2330;48.158;11.816;2023-04-15T04:44:03;5.10;98.50
4635;DHT22;2330;48.158;11.816;2023-04-15T04:46:30;5.10;98.50
4635;DHT22;2330;48.158;11.816;2023-04-15T04:48:57;5.10;98.50
4635;DHT22;2330;48.158;11.816;2023-04-15T04:51:23;5.00;98.50
4635;DHT22;2330;48.158;11.816;2023-04-15T04:53:50;5.00;98.50
4635;DHT22;2330;48.158;11.816;2023-04-15T04:56:17;5.00;98.50
4635;DHT22;2330;48.158;11.816;2023-04-15T04:58:44;5.00;98.50
4635;DHT22;2330;48.158;11.816;2023-04-15T05:01:11;5.00;98.50
4635;DHT22;2330;48.158;11.816;2023-04-15T05:03:38;5.00;98.50
4635;DHT22;2330;48.158;11.816;2023-04-15T05:06:05;5.00;98.50
4635;DHT22;2330;48.158;11.816;2023-04-15T05:08:34;5.00;98.50
4635;DHT22;2330;48.158;11.816;2023-04-15T05:11:01;5.00;98.50
4635;DHT22;2330;48.158;11.816;2023-04-15T05:13:28;5.00;98.50
4635;DHT22;2330;48.158;11.816;2023-04-15T05:15:55;5.00;98.50
4635;DHT22;2330;48.158;11.816;2023-04-15T05:18:22;5.00;98.50
4635;DHT22;2330;48.158;11.816;2023-04-15T05:20:49;5.00;98.50
4635;DHT22;2330;48.158;11.816;2023-04-15T05:23:16;5.00;98.50
4635;DHT22;2330;48.158;11.816;2023-04-15T05:25:43;5.00;98.50
4635;DHT22;2330;48.158;11.816;2023-04-15T05:28:10;5.00;98.50
4635;DHT22;2330;48.158;11.816;2023-04-15T05:30:36;5.10;98.50
4635;DHT22;2330;48.158;11.816;2023-04-15T05:33:03;5.10;98.50
4635;DHT22;2330;48.158;11.816;2023-04-15T05:35:30;5.10;98.50
4635;DHT22;2330;48.158;11.816;2023-04-15T05:37:57;5.20;98.50
4635;DHT22;2330;48.158;11.816;2023-04-15T05:40:24;5.20;98.50
4635;DHT22;2330;48.158;11.816;2023-04-15T05:42:50;5.20;98.50
4635;DHT22;2330;48.158;11.816;2023-04-15T05:45:17;5.30;98.50
4635;DHT22;2330;48.158;11.816;2023-04-15T05:47:44;5.40;98.50
4635;DHT22;2330;48.158;11.816;2023-04-15T05:50:11;5.40;98.50
4635;DHT22;2330;48.158;11.816;2023-04-15T05:52:38;5.50;98.50
4635;DHT22;2330;48.158;11.816;2023-04-15T05:55:05;5.50;98.50
4635;DHT22;2330;48.158;11.816;2023-04-15T05:57:31;5.50;98.50
4635;DHT22;2330;48.158;11.816;2023-04-15T05:59:58;5.60;98.50
4635;DHT22;2330;48.158;11.816;2023-04-15T06:02:25;5.60;98.50
4635;DHT22;2330;48.158;11.816;2023-04-15T06:04:53;5.60;98.50
4635;DHT22;2330;48.158;11.816;2023-04-15T06:07:20;5.70;98.50
4635;DHT22;2330;48.158;11.816;2023-04-15T06:09:47;5.70;98.50
4635;DHT22;2330;48.158;11.816;2023-04-15T06:12:14;5.80;98.50
4635;DHT22;2330;48.158;11.816;2023-04-15T06:14:41;5.80;98.50
4635;DHT22;2330;48.158;11.816;2023-04-15T06:17:08;5.90;98.50
4635;DHT22;2330;48.158;11.816;2023-04-15T06:19:35;5.90;98.50
4635;DHT22;2330;48.158;11.816;2023-04-15T06:22:02;6.00;98.50
4635;DHT22;2330;48.158;11.816;2023-04-15T06:24:29;6.00;98.50
4635;DHT22;2330;48.158;11.816;2023-04-15T06:26:56;6.10;98.50
4635;DHT22;2330;48.158;11.816;2023-04-15T06:29:23;6.10;98.50
4635;DHT22;2330;48.158;11.816;2023-04-15T06:31:50;6.10;98.50
4635;DHT22;2330;48.158;11.816;2023-04-15T06:34:16;6.10;98.50
4635;DHT22;2330;48.158;11.816;2023-04-15T06:36:43;6.20;98.50
4635;DHT22;2330;48.158;11.816;2023-04-15T06:39:10;6.20;98.50
4635;DHT22;2330;48.158;11.816;2023-04-15T06:41:37;6.30;98.50
4635;DHT22;2330;48.158;11.816;2023-04-15T06:44:03;6.30;98.50
4635;DHT22;2330;48.158;11.816;2023-04-15T06:46:30;6.40;98.50
4635;DHT22;2330;48.158;11.816;2023-04-15T06:48:57;6.40;98.50
4635;DHT22;2330;48.158;11.816;2023-04-15T06:51:24;6.40;98.50
4635;DHT22;2330;48.158;11.816;2023-04-15T06:53:52;6.50;98.50
4635;DHT22;2330;48.158;11.816;2023-04-15T06:56:19;6.60;98.50
4635;DHT22;2330;48.158;11.816;2023-04-15T06:58:46;6.70;98.50
4635;DHT22;2330;48.158;11.816;2023-04-15T07:01:13;6.70;98.50
4635;DHT22;2330;48.158;11.816;2023-04-15T07:03:39;6.70;98.50
4635;DHT22;2330;48.158;11.816;2023-04-15T07:06:07;6.70;98.50
4635;DHT22;2330;48.158;11.816;2023-04-15T07:08:34;6.70;98.50
4635;DHT22;2330;48.158;11.816;2023-04-15T07:11:01;6.70;98.50
4635;DHT22;2330;48.158;11.816;2023-04-15T07:13:30;6.70;98.50
4635;DHT22;2330;48.158;11.816;2023-04-15T07:15:57;6.70;98.50
4635;DHT22;2330;48.158;11.816;2023-04-15T07:18:24;6.80;98.50
4635;DHT22;2330;48.158;11.816;2023-04-15T07:20:51;6.80;98.50
4635;DHT22;2330;48.158;11.816;2023-04-15T07:23:18;6.80;98.50
4635;DHT22;2330;48.158;11.816;2023-04-15T07:25:44;6.80;98.50
4635;DHT22;2330;48.158;11.816;2023-04-15T07:28:11;6.80;98.50
4635;DHT22;2330;48.158;11.816;2023-04-15T07:30:38;6.90;98.50
4635;DHT22;2330;48.158;11.816;2023-04-15T07:33:05;6.80;98.50
4635;DHT22;2330;48.158;11.816;2023-04-15T07:35:32;6.80;98.50
4635;DHT22;2330;48.158;11.816;2023-04-15T07:37:59;6.80;98.50
4635;DHT22;2330;48.158;11.816;2023-04-15T07:40:26;6.80;98.50
4635;DHT22;2330;48.158;11.816;2023-04-15T07:42:55;6.80;98.50
4635;DHT22;2330;48.158;11.816;2023-04-15T07:45:23;6.80;98.50
4635;DHT22;2330;48.158;11.816;2023-04-15T07:47:49;6.80;98.50
4635;DHT22;2330;48.158;11.816;2023-04-15T07:50:17;6.80;98.50
4635;DHT22;2330;48.158;11.816;2023-04-15T07:52:45;6.90;98.50
4635;DHT22;2330;48.158;11.816;2023-04-15T07:55:12;7.00;98.50
4635;DHT22;2330;48.158;11.816;2023-04-15T07:57:38;7.00;98.50
4635;DHT22;2330;48.158;11.816;2023-04-15T08:00:06;7.10;98.50
4635;DHT22;2330;48.158;11.816;2023-04-15T08:02:34;7.20;98.50
4635;DHT22;2330;48.158;11.816;2023-04-15T08:05:03;7.30;98.50
4635;DHT22;2330;48.158;11.816;2023-04-15T08:07:30;7.40;98.50
4635;DHT22;2330;48.158;11.816;2023-04-15T08:09:58;7.50;98.50
4635;DHT22;2330;48.158;11.816;2023-04-15T08:12:25;7.70;98.50
4635;DHT22;2330;48.158;11.816;2023-04-15T08:14:51;7.80;98.50
4635;DHT22;2330;48.158;11.816;2023-04-15T08:17:18;7.80;98.50
4635;DHT22;2330;48.158;11.816;2023-04-15T08:19:45;7.80;98.50
4635;DHT22;2330;48.158;11.816;2023-04-15T08:22:14;7.80;98.50
4635;DHT22;2330;48.158;11.816;2023-04-15T08:24:44;8.00;98.50
4635;DHT22;2330;48.158;11.816;2023-04-15T08:27:11;8.00;98.50
4635;DHT22;2330;48.158;11.816;2023-04-15T08:29:38;8.10;98.50
4635;DHT22;2330;48.158;11.816;2023-04-15T08:32:06;8.20;98.50
4635;DHT22;2330;48.158;11.816;2023-04-15T08:34:33;8.30;98.50
4635;DHT22;2330;48.158;11.816;2023-04-15T08:37:00;8.40;98.50
4635;DHT22;2330;48.158;11.816;2023-04-15T08:39:27;8.60;98.50
4635;DHT22;2330;48.158;11.816;2023-04-15T08:42:01;8.60;98.50
4635;DHT22;2330;48.158;11.816;2023-04-15T08:44:31;8.70;98.50
4635;DHT22;2330;48.158;11.816;2023-04-15T08:47:02;8.70;98.50
4635;DHT22;2330;48.158;11.816;2023-04-15T08:49:29;8.70;98.50
4635;DHT22;2330;48.158;11.816;2023-04-15T08:51:58;8.70;98.50
4635;DHT22;2330;48.158;11.816;2023-04-15T08:54:26;8.70;98.50
4635;DHT22;2330;48.158;11.816;2023-04-15T08:56:54;8.70;98.50
4635;DHT22;2330;48.158;11.816;2023-04-15T08:59:21;8.70;98.50
4635;DHT22;2330;48.158;11.816;2023-04-15T09:01:49;8.60;98.50
4635;DHT22;2330;48.158;11.816;2023-04-15T09:04:17;8.70;98.50
4635;DHT22;2330;48.158;11.816;2023-04-15T09:06:44;8.80;98.50
4635;DHT22;2330;48.158;11.816;2023-04-15T09:09:11;8.90;98.50
4635;DHT22;2330;48.158;11.816;2023-04-15T09:11:40;9.10;98.50
4635;DHT22;2330;48.158;11.816;2023-04-15T09:14:07;9.20;98.50
4635;DHT22;2330;48.158;11.816;2023-04-15T09:17:00;9.20;98.50
4635;DHT22;2330;48.158;11.816;2023-04-15T09:19:28;9.10;98.50
4635;DHT22;2330;48.158;11.816;2023-04-15T09:21:57;9.00;98.50
4635;DHT22;2330;48.158;11.816;2023-04-15T09:24:32;8.90;98.50
4635;DHT22;2330;48.158;11.816;2023-04-15T09:26:59;8.80;98.50
4635;DHT22;2330;48.158;11.816;2023-04-15T09:29:26;8.70;98.50
4635;DHT22;2330;48.158;11.816;2023-04-15T09:31:53;8.70;98.50
4635;DHT22;2330;48.158;11.816;2023-04-15T09:34:20;8.60;98.50
4635;DHT22;2330;48.158;11.816;2023-04-15T09:39:16;8.50;98.50
4635;DHT22;2330;48.158;11.816;2023-04-15T09:41:43;8.40;98.50
4635;DHT22;2330;48.158;11.816;2023-04-15T09:44:23;8.20;98.50
4635;DHT22;2330;48.158;11.816;2023-04-15T09:46:51;8.20;98.50
4635;DHT22;2330;48.158;11.816;2023-04-15T09:49:17;8.10;98.50
4635;DHT22;2330;48.158;11.816;2023-04-15T09:51:45;8.10;98.50
4635;DHT22;2330;48.158;11.816;2023-04-15T09:54:37;8.20;98.50
4635;DHT22;2330;48.158;11.816;2023-04-15T09:57:05;8.20;98.50
4635;DHT22;2330;48.158;11.816;2023-04-15T09:59:32;8.30;98.50
4635;DHT22;2330;48.158;11.816;2023-04-15T10:01:59;8.30;98.50
4635;DHT22;2330;48.158;11.816;2023-04-15T10:04:29;8.30;98.50
4635;DHT22;2330;48.158;11.816;2023-04-15T10:06:58;8.40;98.50
4635;DHT22;2330;48.158;11.816;2023-04-15T10:09:26;8.50;98.50
4635;DHT22;2330;48.158;11.816;2023-04-15T10:11:52;8.60;98.50
4635;DHT22;2330;48.158;11.816;2023-04-15T10:14:20;8.70;98.50
4635;DHT22;2330;48.158;11.816;2023-04-15T10:16:48;8.70;98.50
4635;DHT22;2330;48.158;11.816;2023-04-15T10:19:18;8.70;98.50
4635;DHT22;2330;48.158;11.816;2023-04-15T10:21:47;8.70;98.50
4635;DHT22;2330;48.158;11.816;2023-04-15T10:24:15;8.60;98.50
4635;DHT22;2330;48.158;11.816;2023-04-15T10:26:43;8.70;98.50
4635;DHT22;2330;48.158;11.816;2023-04-15T10:29:10;8.70;98.50
4635;DHT22;2330;48.158;11.816;2023-04-15T10:31:37;8.70;98.50
4635;DHT22;2330;48.158;11.816;2023-04-15T10:34:05;8.70;98.50
4635;DHT22;2330;48.158;11.816;2023-04-15T10:36:33;8.70;98.50
4635;DHT22;2330;48.158;11.816;2023-04-15T10:38:59;8.80;98.50
4635;DHT22;2330;48.158;11.816;2023-04-15T10:41:27;8.80;98.50
4635;DHT22;2330;48.158;11.816;2023-04-15T10:44:01;8.80;98.50
4635;DHT22;2330;48.158;11.816;2023-04-15T10:46:37;8.80;98.50
4635;DHT22;2330;48.158;11.816;2023-04-15T10:49:09;8.80;98.50
4635;DHT22;2330;48.158;11.816;2023-04-15T10:51:44;8.90;98.50
4635;DHT22;2330;48.158;11.816;2023-04-15T10:54:31;8.90;98.50
4635;DHT22;2330;48.158;11.816;2023-04-15T11:02:40;9.10;98.50
4635;DHT22;2330;48.158;11.816;2023-04-15T11:05:08;9.10;98.50
4635;DHT22;2330;48.158;11.816;2023-04-15T11:07:55;9.10;98.50
4635;DHT22;2330;48.158;11.816;2023-04-15T11:13:01;9.10;98.50
4635;DHT22;2330;48.158;11.816;2023-04-15T11:15:39;9.10;98.50
4635;DHT22;2330;48.158;11.816;2023-04-15T11:18:12;9.10;98.50
4635;DHT22;2330;48.158;11.816;2023-04-15T11:20:40;9.30;98.50
4635;DHT22;2330;48.158;11.816;2023-04-15T11:23:08;9.30;98.50
4635;DHT22;2330;48.158;11.816;2023-04-15T11:25:41;9.40;98.50
4635;DHT22;2330;48.158;11.816;2023-04-15T11:28:10;9.40;98.50
4635;DHT22;2330;48.158;11.816;2023-04-15T11:30:38;9.30;98.50
4635;DHT22;2330;48.158;11.816;2023-04-15T11:33:08;9.30;98.50
4635;DHT22;2330;48.158;11.816;2023-04-15T11:35:35;9.30;98.50
4635;DHT22;2330;48.158;11.816;2023-04-15T11:38:04;9.20;98.50
4635;DHT22;2330;48.158;11.816;2023-04-15T11:40:31;9.30;98.50
4635;DHT22;2330;48.158;11.816;2023-04-15T11:45:36;9.20;98.50
4635;DHT22;2330;48.158;11.816;2023-04-15T11:48:11;9.20;98.50
4635;DHT22;2330;48.158;11.816;2023-04-15T11:50:39;9.30;98.50
4635;DHT22;2330;48.158;11.816;2023-04-15T11:53:08;9.40;98.50
4635;DHT22;2330;48.158;11.816;2023-04-15T11:55:49;9.50;98.50
4635;DHT22;2330;48.158;11.816;2023-04-15T12:14:11;8.80;98.50
4635;DHT22;2330;48.158;11.816;2023-04-15T12:16:44;8.80;98.50
4635;DHT22;2330;48.158;11.816;2023-04-15T12:19:18;8.80;98.50
4635;DHT22;2330;48.158;11.816;2023-04-15T12:21:46;8.70;98.50
4635;DHT22;2330;48.158;11.816;2023-04-15T12:24:14;8.70;98.50
4635;DHT22;2330;48.158;11.816;2023-04-15T12:26:45;8.70;98.50
4635;DHT22;2330;48.158;11.816;2023-04-15T12:29:13;8.70;98.50
4635;DHT22;2330;48.158;11.816;2023-04-15T12:31:47;8.60;98.50
4635;DHT22;2330;48.158;11.816;2023-04-15T12:34:15;8.50;98.50
4635;DHT22;2330;48.158;11.816;2023-04-15T12:36:42;8.50;98.50
4635;DHT22;2330;48.158;11.816;2023-04-15T12:39:09;8.50;98.50
4635;DHT22;2330;48.158;11.816;2023-04-15T12:41:36;8.50;98.50
4635;DHT22;2330;48.158;11.816;2023-04-15T12:44:02;8.50;98.50
4635;DHT22;2330;48.158;11.816;2023-04-15T12:46:30;8.50;98.50
4635;DHT22;2330;48.158;11.816;2023-04-15T12:48:57;8.50;98.50
4635;DHT22;2330;48.158;11.816;2023-04-15T12:51:23;8.40;98.50
4635;DHT22;2330;48.158;11.816;2023-04-15T12:53:52;8.40;98.50
4635;DHT22;2330;48.158;11.816;2023-04-15T12:56:19;8.50;98.50
4635;DHT22;2330;48.158;11.816;2023-04-15T12:58:46;8.40;98.50
4635;DHT22;2330;48.158;11.816;2023-04-15T13:01:13;8.50;98.50
4635;DHT22;2330;48.158;11.816;2023-04-15T13:03:39;8.50;98.50
4635;DHT22;2330;48.158;11.816;2023-04-15T13:06:06;8.50;98.50
4635;DHT22;2330;48.158;11.816;2023-04-15T13:08:33;8.50;98.50
4635;DHT22;2330;48.158;11.816;2023-04-15T13:11:04;8.40;98.50
4635;DHT22;2330;48.158;11.816;2023-04-15T13:13:31;8.40;98.50
4635;DHT22;2330;48.158;11.816;2023-04-15T13:15:58;8.40;98.50
4635;DHT22;2330;48.158;11.816;2023-04-15T13:18:26;8.50;98.50
4635;DHT22;2330;48.158;11.816;2023-04-15T13:20:53;8.40;98.50
4635;DHT22;2330;48.158;11.816;2023-04-15T13:23:21;8.40;98.50
4635;DHT22;2330;48.158;11.816;2023-04-15T13:25:47;8.20;98.50
4635;DHT22;2330;48.158;11.816;2023-04-15T13:28:14;8.20;98.50
4635;DHT22;2330;48.158;11.816;2023-04-15T13:30:41;8.20;98.50
4635;DHT22;2330;48.158;11.816;2023-04-15T13:33:09;8.20;98.50
4635;DHT22;2330;48.158;11.816;2023-04-15T13:35:36;8.30;98.50
4635;DHT22;2330;48.158;11.816;2023-04-15T13:38:03;8.40;98.50
4635;DHT22;2330;48.158;11.816;2023-04-15T13:40:30;8.30;98.50
4635;DHT22;2330;48.158;11.816;2023-04-15T13:42:57;8.30;98.50
4635;DHT22;2330;48.158;11.816;2023-04-15T13:45:24;8.30;98.50
4635;DHT22;2330;48.158;11.816;2023-04-15T13:47:52;8.40;98.50
4635;DHT22;2330;48.158;11.816;2023-04-15T13:50:19;8.40;98.50
4635;DHT22;2330;48.158;11.816;2023-04-15T13:52:46;8.40;98.50
4635;DHT22;2330;48.158;11.816;2023-04-15T13:55:13;8.50;98.50
4635;DHT22;2330;48.158;11.816;2023-04-15T13:57:46;8.60;98.50
4635;DHT22;2330;48.158;11.816;2023-04-15T14:00:13;8.70;98.50
4635;DHT22;2330;48.158;11.816;2023-04-15T14:02:40;8.70;98.50
4635;DHT22;2330;48.158;11.816;2023-04-15T14:05:11;8.60;98.50
4635;DHT22;2330;48.158;11.816;2023-04-15T14:07:38;8.60;98.50
4635;DHT22;2330;48.158;11.816;2023-04-15T14:10:05;8.50;98.50
4635;DHT22;2330;48.158;11.816;2023-04-15T14:12:32;8.40;98.50
4635;DHT22;2330;48.158;11.816;2023-04-15T14:14:59;8.40;98.50
4635;DHT22;2330;48.158;11.816;2023-04-15T14:17:26;8.40;98.50
4635;DHT22;2330;48.158;11.816;2023-04-15T14:19:52;8.40;98.50
4635;DHT22;2330;48.158;11.816;2023-04-15T14:22:20;8.40;98.50
4635;DHT22;2330;48.158;11.816;2023-04-15T14:24:46;8.30;98.50
4635;DHT22;2330;48.158;11.816;2023-04-15T14:27:14;8.30;98.50
4635;DHT22;2330;48.158;11.816;2023-04-15T14:29:42;8.30;98.50
4635;DHT22;2330;48.158;11.816;2023-04-15T14:32:09;8.20;98.50
4635;DHT22;2330;48.158;11.816;2023-04-15T14:34:38;8.30;98.50
4635;DHT22;2330;48.158;11.816;2023-04-15T14:37:05;8.20;98.50
4635;DHT22;2330;48.158;11.816;2023-04-15T14:39:33;8.20;98.50
4635;DHT22;2330;48.158;11.816;2023-04-15T14:42:00;8.20;98.50
4635;DHT22;2330;48.158;11.816;2023-04-15T14:44:27;8.20;98.50
4635;DHT22;2330;48.158;11.816;2023-04-15T14:46:54;8.20;98.50
4635;DHT22;2330;48.158;11.816;2023-04-15T14:49:21;8.20;98.50
4635;DHT22;2330;48.158;11.816;2023-04-15T14:51:48;8.20;98.50
4635;DHT22;2330;48.158;11.816;2023-04-15T14:54:15;8.20;98.50
4635;DHT22;2330;48.158;11.816;2023-04-15T14:56:41;8.10;98.50
4635;DHT22;2330;48.158;11.816;2023-04-15T14:59:08;8.10;98.50
4635;DHT22;2330;48.158;11.816;2023-04-15T15:01:35;8.20;98.50
4635;DHT22;2330;48.158;11.816;2023-04-15T15:04:02;8.10;98.50
4635;DHT22;2330;48.158;11.816;2023-04-15T15:06:29;7.90;98.50
4635;DHT22;2330;48.158;11.816;2023-04-15T15:08:57;7.80;98.50
4635;DHT22;2330;48.158;11.816;2023-04-15T15:11:23;7.70;98.50
4635;DHT22;2330;48.158;11.816;2023-04-15T15:13:51;7.70;98.50
4635;DHT22;2330;48.158;11.816;2023-04-15T15:16:17;7.70;98.50
4635;DHT22;2330;48.158;11.816;2023-04-15T15:18:44;7.70;98.50
4635;DHT22;2330;48.158;11.816;2023-04-15T15:21:11;7.70;98.50
4635;DHT22;2330;48.158;11.816;2023-04-15T15:23:38;7.60;98.50
4635;DHT22;2330;48.158;11.816;2023-04-15T15:26:04;7.50;98.50
4635;DHT22;2330;48.158;11.816;2023-04-15T15:28:31;7.50;98.50
4635;DHT22;2330;48.158;11.816;2023-04-15T15:30:59;7.40;98.50
4635;DHT22;2330;48.158;11.816;2023-04-15T15:33:26;7.40;98.50
4635;DHT22;2330;48.158;11.816;2023-04-15T15:35:57;7.40;98.50
4635;DHT22;2330;48.158;11.816;2023-04-15T15:38:23;7.30;98.50
4635;DHT22;2330;48.158;11.816;2023-04-15T15:40:50;7.30;98.50
4635;DHT22;2330;48.158;11.816;2023-04-15T15:43:17;7.30;98.50
4635;DHT22;2330;48.158;11.816;2023-04-15T15:45:44;7.30;98.50
4635;DHT22;2330;48.158;11.816;2023-04-15T15:48:11;7.30;98.50
4635;DHT22;2330;48.158;11.816;2023-04-15T15:50:38;7.30;98.50
4635;DHT22;2330;48.158;11.816;2023-04-15T15:53:04;7.20;98.50
4635;DHT22;2330;48.158;11.816;2023-04-15T15:55:31;7.20;98.50
4635;DHT22;2330;48.158;11.816;2023-04-15T15:57:58;7.20;98.50
4635;DHT22;2330;48.158;11.816;2023-04-15T16:00:25;7.20;98.50
4635;DHT22;2330;48.158;11.816;2023-04-15T16:02:54;7.20;98.50
4635;DHT22;2330;48.158;11.816;2023-04-15T16:05:34;7.20;98.50
4635;DHT22;2330;48.158;11.816;2023-04-15T16:08:01;7.10;98.50
4635;DHT22;2330;48.158;11.816;2023-04-15T16:10:27;7.20;98.50
4635;DHT22;2330;48.158;11.816;2023-04-15T16:12:54;7.10;98.50
4635;DHT22;2330;48.158;11.816;2023-04-15T16:15:23;7.10;98.50
4635;DHT22;2330;48.158;11.816;2023-04-15T16:17:50;7.00;98.50
4635;DHT22;2330;48.158;11.816;2023-04-15T16:20:17;7.00;98.50
4635;DHT22;2330;48.158;11.816;2023-04-15T16:22:43;7.00;98.50
4635;DHT22;2330;48.158;11.816;2023-04-15T16:25:10;7.00;98.50
4635;DHT22;2330;48.158;11.816;2023-04-15T16:27:37;7.00;98.50
4635;DHT22;2330;48.158;11.816;2023-04-15T16:30:08;7.00;98.50
4635;DHT22;2330;48.158;11.816;2023-04-15T16:32:35;7.00;98.50
4635;DHT22;2330;48.158;11.816;2023-04-15T16:35:02;7.00;98.50